Time;durP1;ratioP1;P1;durP2;ratioP2;P2;SDS_P1;SDS_P2;PMS_P1;PMS_P2;Temp;Humidity;BMP_temperature;BMP_pressure;BME280_temperature;BME280_humidity;BME280_pressure;Samples;Min_cycle;Max_cycle;Signal;HPM_P1;HPM_P2
2020/12/21 00:00:09;;;;;;;25.05;18.33;;;6.20;99.90;;;;;;5095280;28;20112;-76
2020/12/21 00:02:35;;;;;;;29.45;21.17;;;6.30;99.90;;;;;;5094943;28;20105;-76
2020/12/21 00:05:01;;;;;;;27.25;20.27;;;6.30;99.90;;;;;;5094933;28;20032;-76
2020/12/21 00:07:26;;;;;;;31.73;20.08;;;6.30;99.90;;;;;;5093307;28;20040;-76
2020/12/21 00:09:52;;;;;;;27.00;19.13;;;6.30;99.90;;;;;;5094495;28;20476;-76
2020/12/21 00:12:18;;;;;;;26.80;19.33;;;6.30;99.90;;;;;;5094199;28;20038;-76
2020/12/21 00:14:44;;;;;;;27.67;18.95;;;6.30;99.90;;;;;;5094903;28;20110;-75
2020/12/21 00:17:10;;;;;;;22.23;15.65;;;6.20;99.90;;;;;;5076057;28;20136;-76
2020/12/21 00:19:35;;;;;;;19.75;15.40;;;6.30;99.90;;;;;;5094935;28;20039;-76
2020/12/21 00:22:02;;;;;;;16.92;11.60;;;6.30;99.90;;;;;;5094963;28;20348;-76
2020/12/21 00:24:27;;;;;;;16.80;12.85;;;6.40;99.90;;;;;;5094103;28;20499;-70
2020/12/21 00:26:54;;;;;;;19.35;14.43;;;6.40;99.90;;;;;;5094466;28;20032;-76
2020/12/21 00:29:20;;;;;;;19.70;13.10;;;6.40;99.90;;;;;;5094074;28;20032;-76
2020/12/21 00:31:47;;;;;;;23.38;14.75;;;6.40;99.90;;;;;;5094680;28;20469;-76
2020/12/21 00:34:14;;;;;;;22.15;14.95;;;6.40;99.90;;;;;;5075569;28;20099;-73
2020/12/21 00:36:44;;;;;;;20.98;15.18;;;6.50;99.90;;;;;;5094678;28;20107;-76
2020/12/21 00:39:11;;;;;;;24.35;17.67;;;6.50;99.90;;;;;;5093698;28;20112;-75
2020/12/21 00:41:38;;;;;;;12.90;9.48;;;6.50;99.90;;;;;;5094089;28;20032;-76
2020/12/21 00:44:04;;;;;;;6.53;4.45;;;6.50;99.90;;;;;;5094141;28;20397;-76
2020/12/21 00:46:30;;;;;;;5.57;4.15;;;6.50;99.90;;;;;;5094009;28;20055;-76
2020/12/21 00:48:57;;;;;;;4.15;3.13;;;6.60;99.90;;;;;;5094179;28;20039;-77
2020/12/21 00:51:23;;;;;;;3.85;3.20;;;6.70;99.90;;;;;;5075273;28;20123;-77
2020/12/21 00:53:49;;;;;;;6.55;2.40;;;6.80;99.90;;;;;;5094707;28;20135;-76
2020/12/21 00:56:17;;;;;;;3.15;2.20;;;6.80;99.90;;;;;;5092897;28;20431;-76
2020/12/21 00:58:42;;;;;;;2.30;2.10;;;6.80;99.90;;;;;;5093992;28;20487;-76
2020/12/21 01:01:14;;;;;;;3.00;2.20;;;6.80;99.90;;;;;;5094191;28;20033;-73
2020/12/21 01:03:40;;;;;;;5.40;2.85;;;6.80;99.90;;;;;;5076555;28;20058;-74
2020/12/21 01:06:06;;;;;;;8.02;5.00;;;6.80;99.90;;;;;;5093439;28;20024;-75
2020/12/21 01:08:32;;;;;;;8.63;5.63;;;6.90;99.90;;;;;;5093417;28;20047;-75
2020/12/21 01:10:58;;;;;;;6.75;5.03;;;6.90;99.90;;;;;;5096037;28;20032;-76
2020/12/21 01:13:24;;;;;;;19.58;13.85;;;6.90;99.90;;;;;;5094091;28;20038;-76
2020/12/21 01:15:49;;;;;;;17.90;13.88;;;6.90;99.90;;;;;;5093963;28;20028;-75
2020/12/21 01:18:15;;;;;;;16.42;12.40;;;6.80;99.90;;;;;;5092855;28;20024;-75
2020/12/21 01:20:41;;;;;;;16.02;12.73;;;6.80;99.90;;;;;;5093660;28;20036;-76
2020/12/21 01:23:07;;;;;;;16.05;11.60;;;6.70;99.90;;;;;;5093659;28;20032;-75
2020/12/21 01:25:33;;;;;;;12.10;9.40;;;6.70;99.90;;;;;;5092805;28;20028;-76
2020/12/21 01:27:59;;;;;;;11.57;7.43;;;6.60;99.90;;;;;;5092840;28;20488;-77
2020/12/21 01:30:25;;;;;;;17.52;11.63;;;6.60;99.90;;;;;;5092915;28;20032;-75
2020/12/21 01:32:51;;;;;;;19.80;12.30;;;6.60;99.90;;;;;;5093270;28;20020;-69
2020/12/21 01:35:16;;;;;;;17.52;13.45;;;6.60;99.90;;;;;;5074176;28;20599;-75
2020/12/21 01:37:42;;;;;;;19.75;12.13;;;6.60;99.90;;;;;;5093523;28;20020;-75
2020/12/21 01:40:10;;;;;;;15.65;11.63;;;6.60;99.90;;;;;;5092612;28;20032;-75
2020/12/21 01:42:36;;;;;;;13.60;10.82;;;6.50;99.90;;;;;;5092671;28;20060;-75
2020/12/21 01:45:04;;;;;;;14.13;10.73;;;6.50;99.90;;;;;;5093158;28;20123;-75
2020/12/21 01:47:29;;;;;;;16.58;11.95;;;6.50;99.90;;;;;;5092119;28;20026;-74
2020/12/21 01:49:55;;;;;;;13.90;9.90;;;6.50;99.90;;;;;;5093079;28;20115;-74
2020/12/21 01:52:21;;;;;;;12.23;8.88;;;6.40;99.90;;;;;;5092194;28;20461;-75
2020/12/21 01:54:50;;;;;;;9.25;6.85;;;6.40;99.90;;;;;;5092975;28;20372;-75
2020/12/21 01:57:16;;;;;;;8.53;5.97;;;6.30;99.90;;;;;;5091941;28;20116;-73
2020/12/21 01:59:42;;;;;;;8.73;6.90;;;6.30;99.90;;;;;;5092740;28;20536;-75
2020/12/21 02:02:09;;;;;;;22.40;16.25;;;6.20;99.90;;;;;;5093324;28;20036;-75
2020/12/21 02:04:35;;;;;;;22.95;17.25;;;6.20;99.90;;;;;;5092262;28;20040;-76
2020/12/21 02:07:01;;;;;;;27.17;18.45;;;6.10;99.90;;;;;;5091392;28;20038;-76
2020/12/21 02:09:28;;;;;;;29.70;18.02;;;6.00;99.90;;;;;;5092119;28;20035;-75
2020/12/21 02:11:54;;;;;;;28.77;18.80;;;5.90;99.90;;;;;;5092389;28;20032;-75
2020/12/21 02:14:20;;;;;;;28.67;18.63;;;5.90;99.90;;;;;;5092149;28;20036;-76
2020/12/21 02:16:46;;;;;;;22.15;16.58;;;5.80;99.90;;;;;;5092782;28;20032;-75
2020/12/21 02:19:12;;;;;;;25.98;18.05;;;5.70;99.90;;;;;;5091074;28;20032;-75
2020/12/21 02:21:38;;;;;;;27.13;17.63;;;5.60;99.90;;;;;;5092371;28;20172;-77
2020/12/21 02:24:04;;;;;;;27.77;18.60;;;5.50;99.90;;;;;;5092539;28;20040;-76
2020/12/21 02:26:30;;;;;;;32.05;20.88;;;5.40;99.90;;;;;;5091077;28;20849;-75
2020/12/21 02:28:59;;;;;;;24.98;18.90;;;5.30;99.90;;;;;;5092459;28;20461;-76
2020/12/21 02:31:26;;;;;;;26.70;17.25;;;5.20;99.90;;;;;;5091528;28;20487;-75
2020/12/21 02:33:52;;;;;;;31.83;19.55;;;5.20;99.90;;;;;;5092472;28;20059;-76
2020/12/21 02:36:18;;;;;;;28.02;19.23;;;5.10;99.90;;;;;;5073199;28;20044;-75
2020/12/21 02:38:44;;;;;;;33.92;21.02;;;5.10;99.90;;;;;;5093356;28;20086;-76
2020/12/21 02:41:15;;;;;;;27.42;18.30;;;5.00;99.90;;;;;;5092162;28;20020;-75
2020/12/21 02:43:41;;;;;;;27.60;18.52;;;5.00;99.90;;;;;;5091642;28;20067;-75
2020/12/21 02:46:08;;;;;;;24.58;16.65;;;5.00;99.90;;;;;;5091802;28;20077;-75
2020/12/21 02:48:34;;;;;;;26.98;16.83;;;4.90;99.90;;;;;;5091395;28;20456;-75
2020/12/21 02:51:00;;;;;;;25.10;18.13;;;4.90;99.90;;;;;;5073730;28;20059;-75
2020/12/21 02:53:25;;;;;;;25.90;17.42;;;4.80;99.90;;;;;;5091004;28;20111;-71
2020/12/21 02:55:51;;;;;;;27.02;17.75;;;4.80;99.90;;;;;;5091560;28;20372;-75
2020/12/21 02:58:16;;;;;;;27.95;18.25;;;4.80;99.90;;;;;;5090502;28;20460;-75
2020/12/21 03:00:42;;;;;;;24.20;16.17;;;4.70;99.90;;;;;;5091862;28;20065;-75
2020/12/21 03:03:08;;;;;;;24.40;17.08;;;4.70;99.90;;;;;;5091698;28;20028;-75
2020/12/21 03:05:34;;;;;;;28.30;19.67;;;4.70;99.90;;;;;;5072862;28;20020;-75
2020/12/21 03:08:01;;;;;;;26.15;17.52;;;4.70;99.90;;;;;;5087138;28;20456;-74
2020/12/21 03:10:27;;;;;;;23.15;16.30;;;4.70;99.90;;;;;;5090570;28;20059;-74
2020/12/21 03:12:53;;;;;;;26.58;16.70;;;4.70;99.90;;;;;;5090717;28;20028;-75
2020/12/21 03:15:19;;;;;;;21.85;14.98;;;4.70;99.90;;;;;;5090448;28;20024;-77
2020/12/21 03:17:45;;;;;;;22.58;14.15;;;4.70;99.90;;;;;;5091182;28;20032;-74
2020/12/21 03:20:11;;;;;;;20.83;14.38;;;4.70;99.90;;;;;;5091839;28;20080;-74
2020/12/21 03:22:36;;;;;;;17.25;11.82;;;4.70;99.90;;;;;;5090828;28;20099;-75
2020/12/21 03:25:03;;;;;;;16.67;11.13;;;4.70;99.90;;;;;;5091517;28;20039;-75
2020/12/21 03:27:30;;;;;;;15.48;10.55;;;4.60;99.90;;;;;;5090835;28;20036;-75
2020/12/21 03:29:56;;;;;;;15.40;11.20;;;4.60;99.90;;;;;;5090964;28;20500;-74
2020/12/21 03:32:21;;;;;;;17.52;11.57;;;4.60;99.90;;;;;;5090439;28;20027;-74
2020/12/21 03:34:47;;;;;;;17.15;12.10;;;4.60;99.90;;;;;;5091649;28;20028;-75
2020/12/21 03:37:13;;;;;;;24.30;15.88;;;4.50;99.90;;;;;;5090899;28;20026;-74
2020/12/21 03:39:39;;;;;;;23.70;14.95;;;4.40;99.90;;;;;;5090714;28;20138;-74
2020/12/21 03:42:04;;;;;;;27.00;16.77;;;4.50;99.90;;;;;;5091511;28;20561;-75
2020/12/21 03:44:30;;;;;;;25.17;17.02;;;4.40;99.90;;;;;;5089665;28;20048;-75
2020/12/21 03:46:56;;;;;;;27.27;17.08;;;4.40;99.90;;;;;;5091076;28;20078;-75
2020/12/21 03:49:22;;;;;;;27.83;17.17;;;4.30;99.90;;;;;;5090539;28;20453;-76
2020/12/21 03:51:48;;;;;;;34.75;18.67;;;4.30;99.90;;;;;;5091598;28;20089;-75
2020/12/21 03:54:14;;;;;;;26.25;16.42;;;4.20;99.90;;;;;;5090658;28;20032;-76
2020/12/21 03:56:43;;;;;;;25.48;14.43;;;4.10;99.90;;;;;;5090328;28;20024;-75
2020/12/21 03:59:09;;;;;;;35.53;21.13;;;4.10;99.90;;;;;;5091027;28;20118;-74
2020/12/21 04:01:36;;;;;;;32.30;19.27;;;4.10;99.90;;;;;;5090262;28;20028;-76
2020/12/21 04:04:06;;;;;;;38.53;21.42;;;4.10;99.90;;;;;;5091261;28;20111;-75
2020/12/21 04:06:32;;;;;;;38.17;21.48;;;4.10;99.90;;;;;;5091138;28;20032;-75
2020/12/21 04:08:58;;;;;;;30.02;19.63;;;4.10;99.90;;;;;;5091435;28;20036;-71
2020/12/21 04:11:24;;;;;;;33.05;18.95;;;4.10;99.90;;;;;;5090307;28;20031;-74
2020/12/21 04:13:49;;;;;;;32.97;19.20;;;4.10;99.90;;;;;;5091139;28;20107;-75
2020/12/21 04:16:15;;;;;;;30.95;19.20;;;4.00;99.90;;;;;;5090348;28;20389;-74
2020/12/21 04:18:41;;;;;;;28.15;16.42;;;4.00;99.90;;;;;;5090805;28;20032;-69
2020/12/21 04:21:13;;;;;;;28.33;16.92;;;3.90;99.90;;;;;;5091345;28;20040;-75
2020/12/21 04:23:40;;;;;;;27.42;16.80;;;3.90;99.90;;;;;;5082302;28;20032;-69
2020/12/21 04:26:06;;;;;;;29.20;16.10;;;3.80;99.90;;;;;;5090802;28;20469;-75
2020/12/21 04:28:32;;;;;;;24.77;14.43;;;3.80;99.90;;;;;;5089899;28;20055;-73
2020/12/21 04:31:03;;;;;;;20.83;14.48;;;3.70;99.90;;;;;;5090918;28;20032;-74
2020/12/21 04:33:28;;;;;;;22.77;14.60;;;3.70;99.90;;;;;;5089912;28;20178;-76
2020/12/21 04:35:54;;;;;;;23.58;14.75;;;3.70;99.90;;;;;;5090791;28;20520;-74
2020/12/21 04:38:20;;;;;;;21.42;13.52;;;3.70;99.90;;;;;;5090041;28;20111;-77
2020/12/21 04:40:50;;;;;;;25.85;13.45;;;3.60;99.90;;;;;;5090883;28;20036;-75
2020/12/21 04:43:16;;;;;;;22.25;13.18;;;3.60;99.90;;;;;;5085036;28;20097;-75
2020/12/21 04:45:43;;;;;;;28.63;15.57;;;3.60;99.90;;;;;;5094237;28;20481;-74
2020/12/21 04:48:14;;;;;;;30.85;14.18;;;3.60;99.90;;;;;;5094030;28;20042;-74
2020/12/21 04:50:41;;;;;;;21.15;11.73;;;3.70;99.90;;;;;;5075702;28;20086;-74
2020/12/21 04:53:08;;;;;;;21.80;11.38;;;3.70;99.90;;;;;;5094355;28;20081;-74
2020/12/21 04:55:34;;;;;;;17.10;10.43;;;3.80;99.90;;;;;;5093385;28;20028;-75
2020/12/21 04:58:05;;;;;;;21.77;10.73;;;3.80;99.90;;;;;;5093961;28;20385;-75
2020/12/21 05:00:31;;;;;;;;;;;3.80;99.90;;;;;;5093741;28;20028;-75
2020/12/21 05:02:58;;;;;;;17.45;10.02;;;3.80;99.90;;;;;;5093779;28;19915;-74
2020/12/21 05:05:33;;;;;;;15.23;9.48;;;3.90;99.90;;;;;;5093113;28;20059;-75
2020/12/21 05:08:08;;;;;;;18.10;9.75;;;3.90;99.90;;;;;;5090374;28;20489;-75
2020/12/21 05:10:37;;;;;;;17.42;10.40;;;4.00;99.90;;;;;;5092891;28;20032;-75
2020/12/21 05:13:03;;;;;;;14.32;9.20;;;3.90;99.90;;;;;;5094071;28;20021;-75
2020/12/21 05:15:29;;;;;;;17.45;9.93;;;3.90;99.90;;;;;;5092724;28;20024;-75
2020/12/21 05:18:06;;;;;;;19.88;10.80;;;3.90;99.90;;;;;;5093537;28;20427;-74
2020/12/21 05:20:32;;;;;;;15.18;9.35;;;3.90;99.90;;;;;;5092688;28;20028;-76
2020/12/21 05:22:59;;;;;;;19.13;11.07;;;3.90;99.90;;;;;;5093033;28;20557;-74
2020/12/21 05:25:24;;;;;;;15.50;10.55;;;3.90;99.90;;;;;;5074480;28;20035;-68
2020/12/21 05:27:50;;;;;;;20.00;11.68;;;3.90;99.90;;;;;;5093678;28;20389;-69
2020/12/21 05:30:16;;;;;;;14.85;10.27;;;3.90;99.90;;;;;;5092622;28;20073;-76
2020/12/21 05:32:42;;;;;;;25.35;13.57;;;3.90;99.90;;;;;;5092578;28;20027;-68
2020/12/21 05:35:10;;;;;;;18.88;12.02;;;3.90;99.90;;;;;;5076332;28;20056;-73
2020/12/21 05:37:39;;;;;;;19.25;10.55;;;3.90;99.90;;;;;;5088968;28;20035;-72
2020/12/21 05:40:06;;;;;;;16.92;9.77;;;3.90;99.90;;;;;;5093084;28;20084;-72
2020/12/21 05:42:34;;;;;;;17.30;10.45;;;3.90;99.90;;;;;;5092351;28;20016;-76
2020/12/21 05:45:04;;;;;;;24.10;12.65;;;4.00;99.90;;;;;;5093219;28;20024;-71
2020/12/21 05:47:29;;;;;;;26.65;12.73;;;4.00;99.90;;;;;;5092578;28;20032;-73
2020/12/21 05:49:55;;;;;;;22.50;12.50;;;4.00;99.90;;;;;;5092594;28;20353;-78
2020/12/21 05:52:28;;;;;;;28.15;15.82;;;4.00;99.90;;;;;;5091636;28;20377;-75
2020/12/21 05:54:54;;;;;;;23.77;15.00;;;4.10;99.90;;;;;;5093070;28;20089;-75
2020/12/21 05:57:21;;;;;;;26.70;16.85;;;4.10;99.90;;;;;;5092145;28;20489;-73
2020/12/21 05:59:49;;;;;;;23.60;13.77;;;4.10;99.90;;;;;;5092637;28;20024;-74
2020/12/21 06:02:18;;;;;;;27.05;15.23;;;4.10;99.90;;;;;;5072886;28;20387;-73
2020/12/21 06:04:48;;;;;;;28.77;17.30;;;4.10;99.90;;;;;;5092208;28;20054;-74
2020/12/21 06:07:21;;;;;;;34.97;19.90;;;4.10;99.90;;;;;;5085719;28;20032;-73
2020/12/21 06:09:49;;;;;;;28.08;18.67;;;4.20;99.90;;;;;;5092363;28;20081;-73
2020/12/21 06:12:20;;;;;;;29.05;17.55;;;4.20;99.90;;;;;;5074137;28;20024;-72
2020/12/21 06:14:48;;;;;;;28.83;18.77;;;4.20;99.90;;;;;;5092531;28;20032;-72
2020/12/21 06:17:14;;;;;;;28.58;17.25;;;4.20;99.90;;;;;;5092712;28;20368;-73
2020/12/21 06:19:40;;;;;;;24.67;16.67;;;4.30;99.90;;;;;;5091419;28;20028;-72
2020/12/21 06:22:06;;;;;;;25.65;15.50;;;4.20;99.90;;;;;;5092452;28;20031;-71
2020/12/21 06:24:38;;;;;;;22.17;15.45;;;4.20;99.90;;;;;;5091197;28;20028;-72
2020/12/21 06:27:13;;;;;;;23.88;15.88;;;4.30;99.90;;;;;;5092246;28;20465;-75
2020/12/21 06:29:40;;;;;;;26.58;16.27;;;4.20;99.90;;;;;;5091420;28;20163;-71
2020/12/21 06:32:07;;;;;;;25.15;16.25;;;4.20;99.90;;;;;;5091327;28;20081;-73
2020/12/21 06:34:38;;;;;;;22.95;15.38;;;4.20;99.90;;;;;;5091036;28;20038;-73
2020/12/21 06:37:10;;;;;;;19.35;14.27;;;4.20;99.90;;;;;;5091930;28;20024;-72
2020/12/21 06:39:39;;;;;;;30.63;18.90;;;4.10;99.90;;;;;;5091066;28;20069;-72
2020/12/21 06:42:13;;;;;;;30.73;18.90;;;4.10;99.90;;;;;;5091828;28;20024;-72
2020/12/21 06:44:40;;;;;;;32.38;19.23;;;4.10;99.90;;;;;;5090978;28;20163;-73
2020/12/21 06:47:12;;;;;;;32.97;19.15;;;4.10;99.90;;;;;;5088939;28;20091;-72
2020/12/21 06:49:39;;;;;;;30.95;19.42;;;4.10;99.90;;;;;;5082232;28;20094;-68
2020/12/21 06:52:05;;;;;;;35.92;21.00;;;4.00;99.90;;;;;;5083378;28;20469;-73
2020/12/21 06:54:31;;;;;;;30.70;19.02;;;4.00;99.90;;;;;;5084626;28;20032;-73
2020/12/21 06:56:58;;;;;;;30.77;16.83;;;4.00;99.90;;;;;;5083565;28;20028;-73
2020/12/21 06:59:25;;;;;;;22.65;14.82;;;4.00;99.90;;;;;;5066992;28;20073;-72
2020/12/21 07:01:53;;;;;;;26.60;16.40;;;4.10;99.90;;;;;;5065557;28;20438;-68
2020/12/21 07:04:29;;;;;;;28.70;15.75;;;4.10;99.90;;;;;;5072554;28;20040;-71
2020/12/21 07:07:02;;;;;;;23.70;14.75;;;4.10;99.90;;;;;;5081890;28;20069;-67
2020/12/21 07:09:34;;;;;;;23.98;14.13;;;4.10;99.90;;;;;;5087642;28;20061;-70
2020/12/21 07:12:02;;;;;;;21.70;14.02;;;4.10;99.90;;;;;;5091693;28;20111;-67
2020/12/21 07:14:29;;;;;;;23.27;12.20;;;4.10;99.90;;;;;;5090892;28;20040;-68
2020/12/21 07:17:06;;;;;;;18.73;12.43;;;4.10;99.90;;;;;;5073165;28;20040;-69
2020/12/21 07:19:37;;;;;;;22.30;12.40;;;4.10;99.90;;;;;;5072098;28;20043;-70
2020/12/21 07:22:04;;;;;;;21.35;14.77;;;4.10;99.90;;;;;;5091235;28;20445;-69
2020/12/21 07:24:30;;;;;;;25.38;15.90;;;4.10;99.90;;;;;;5096038;28;20435;-68
2020/12/21 07:26:55;;;;;;;17.60;9.93;;;4.10;99.90;;;;;;5087966;28;20035;-68
2020/12/21 07:29:23;;;;;;;14.65;9.90;;;4.20;99.90;;;;;;5079174;28;20461;-71
2020/12/21 07:31:49;;;;;;;16.08;10.85;;;4.30;99.90;;;;;;5087568;28;20039;-68
2020/12/21 07:34:15;;;;;;;21.38;10.90;;;4.40;99.90;;;;;;5091191;28;20457;-65
2020/12/21 07:36:42;;;;;;;24.13;14.45;;;4.50;99.90;;;;;;5089288;28;20028;-68
2020/12/21 07:39:12;;;;;;;22.67;15.13;;;4.50;99.90;;;;;;5083643;28;20099;-67
2020/12/21 07:41:42;;;;;;;25.23;15.63;;;4.40;99.90;;;;;;5090571;28;20051;-63
2020/12/21 07:44:13;;;;;;;25.92;15.88;;;4.30;99.90;;;;;;5090584;28;20550;-66
2020/12/21 07:46:45;;;;;;;22.77;15.57;;;4.30;99.90;;;;;;5090055;28;20836;-68
2020/12/21 07:49:12;;;;;;;23.73;16.33;;;4.20;99.90;;;;;;5090705;28;20028;-67
2020/12/21 07:51:42;;;;;;;24.77;17.65;;;4.20;99.90;;;;;;5090322;28;20610;-67
2020/12/21 07:54:12;;;;;;;21.38;15.50;;;4.20;99.90;;;;;;5091302;28;20028;-67
2020/12/21 07:56:38;;;;;;;16.38;11.73;;;4.20;99.90;;;;;;5089838;28;20036;-67
2020/12/21 07:59:17;;;;;;;11.15;7.35;;;4.30;99.90;;;;;;5091037;28;20431;-67
2020/12/21 08:01:44;;;;;;;11.15;7.68;;;4.40;99.90;;;;;;5087149;28;20034;-68
2020/12/21 08:04:17;;;;;;;10.48;7.95;;;4.50;99.90;;;;;;5082749;28;20410;-67
2020/12/21 08:06:45;;;;;;;12.43;8.00;;;4.50;99.90;;;;;;5089514;28;20277;-67
2020/12/21 08:09:11;;;;;;;10.77;7.15;;;4.50;99.90;;;;;;5090619;28;20469;-66
2020/12/21 08:11:38;;;;;;;11.40;7.70;;;4.60;99.90;;;;;;5089872;28;20028;-66
2020/12/21 08:14:07;;;;;;;10.85;7.30;;;4.60;99.90;;;;;;5090711;28;20467;-67
2020/12/21 08:16:32;;;;;;;10.52;7.05;;;4.60;99.90;;;;;;5090637;28;20020;-67
2020/12/21 08:18:59;;;;;;;12.10;6.85;;;4.60;99.90;;;;;;5094637;28;20358;-67
2020/12/21 08:21:25;;;;;;;12.32;7.40;;;4.60;99.90;;;;;;5093220;28;20134;-70
2020/12/21 08:23:56;;;;;;;19.83;11.02;;;4.60;99.90;;;;;;5094718;28;20032;-69
2020/12/21 08:26:33;;;;;;;16.63;12.48;;;4.60;99.90;;;;;;5094204;28;20350;-69
2020/12/21 08:28:59;;;;;;;18.77;12.32;;;4.70;99.90;;;;;;5095067;28;20039;-67
2020/12/21 08:31:26;;;;;;;18.38;12.18;;;4.70;99.90;;;;;;5092589;28;20772;-70
2020/12/21 08:34:06;;;;;;;23.90;12.82;;;4.70;99.90;;;;;;5094405;28;20028;-66
2020/12/21 08:36:39;;;;;;;19.58;12.55;;;4.70;99.90;;;;;;5091075;28;20428;-69
2020/12/21 08:39:18;;;;;;;14.70;11.10;;;4.70;99.90;;;;;;5065755;28;20124;-66
2020/12/21 08:41:46;;;;;;;19.30;11.63;;;4.80;99.90;;;;;;5091580;28;20028;-64
2020/12/21 08:44:36;;;;;;;21.23;12.20;;;4.80;99.90;;;;;;5093701;28;20295;-68
2020/12/21 08:47:02;;;;;;;18.02;12.50;;;4.80;99.90;;;;;;5094417;28;20060;-65
2020/12/21 08:49:29;;;;;;;17.20;12.05;;;4.90;99.90;;;;;;5092744;28;20489;-69
2020/12/21 08:52:03;;;;;;;17.35;11.90;;;4.90;99.90;;;;;;5094005;28;20469;-68
2020/12/21 08:54:29;;;;;;;18.50;12.40;;;4.90;99.90;;;;;;5092998;28;20540;-67
2020/12/21 08:56:57;;;;;;;17.63;12.90;;;5.00;99.90;;;;;;5093404;28;20031;-69
2020/12/21 08:59:27;;;;;;;20.88;13.43;;;5.00;99.90;;;;;;5093896;28;20078;-71
2020/12/21 09:01:52;;;;;;;22.60;14.70;;;5.10;99.90;;;;;;5090019;28;20062;-68
2020/12/21 09:04:18;;;;;;;23.67;13.38;;;5.10;99.90;;;;;;5082973;28;20048;-85
2020/12/21 09:06:44;;;;;;;24.02;13.63;;;5.10;99.90;;;;;;5068198;28;20621;-72
2020/12/21 09:09:10;;;;;;;18.85;12.75;;;5.10;99.90;;;;;;5081655;28;20032;-74
2020/12/21 09:11:36;;;;;;;20.02;13.30;;;5.10;99.90;;;;;;5082425;28;20032;-73
2020/12/21 09:14:03;;;;;;;16.33;11.88;;;5.20;99.90;;;;;;5083606;28;20519;-74
2020/12/21 09:16:30;;;;;;;16.00;11.43;;;5.20;99.90;;;;;;5082841;28;20033;-73
2020/12/21 09:18:57;;;;;;;18.40;13.32;;;5.20;99.90;;;;;;5091078;28;20024;-74
2020/12/21 09:21:29;;;;;;;19.35;13.48;;;5.20;99.90;;;;;;5083830;28;20051;-77
2020/12/21 09:23:58;;;;;;;19.35;12.85;;;5.30;99.90;;;;;;5084146;28;20112;-74
2020/12/21 09:26:30;;;;;;;19.70;13.18;;;5.30;99.90;;;;;;5084677;28;20051;-78
2020/12/21 09:28:55;;;;;;;17.83;12.15;;;5.30;99.90;;;;;;5081957;28;20104;-75
2020/12/21 09:31:22;;;;;;;17.23;11.52;;;5.30;99.90;;;;;;5081903;28;20425;-68
2020/12/21 09:33:49;;;;;;;22.55;13.48;;;5.30;99.90;;;;;;5084730;28;20039;-71
2020/12/21 09:36:16;;;;;;;20.70;12.80;;;5.40;99.90;;;;;;5084180;28;20050;-74
2020/12/21 09:38:43;;;;;;;17.83;12.65;;;5.40;99.90;;;;;;5082825;28;20082;-73
2020/12/21 09:41:09;;;;;;;21.65;13.05;;;5.40;99.90;;;;;;5086646;28;20032;-75
2020/12/21 09:43:35;;;;;;;17.48;12.93;;;5.50;99.90;;;;;;5034154;28;20099;-75
2020/12/21 09:46:01;;;;;;;19.38;12.70;;;5.50;99.90;;;;;;5066697;28;20056;-75
2020/12/21 09:48:28;;;;;;;16.67;12.20;;;5.50;99.90;;;;;;5064184;28;20056;-77
2020/12/21 09:50:54;;;;;;;18.33;12.32;;;5.50;99.90;;;;;;5060698;28;20667;-72
2020/12/21 09:53:19;;;;;;;21.70;12.60;;;5.50;99.90;;;;;;5060874;28;20104;-68
2020/12/21 09:55:45;;;;;;;16.98;12.27;;;5.50;99.90;;;;;;5062155;28;20090;-76
2020/12/21 09:58:11;;;;;;;16.45;11.52;;;5.60;99.90;;;;;;5061268;28;20032;-75
2020/12/21 10:00:37;;;;;;;16.05;11.10;;;5.60;99.90;;;;;;5062166;28;20075;-74
2020/12/21 10:03:04;;;;;;;17.27;11.50;;;5.70;99.90;;;;;;5061101;28;20021;-71
2020/12/21 10:05:31;;;;;;;17.05;11.45;;;5.70;99.90;;;;;;5060780;28;20060;-77
2020/12/21 10:07:57;;;;;;;14.93;10.25;;;5.70;99.90;;;;;;5063718;28;20089;-74
2020/12/21 10:10:23;;;;;;;12.63;9.20;;;5.80;99.90;;;;;;5063700;28;20025;-69
2020/12/21 10:12:50;;;;;;;14.43;9.95;;;5.90;99.90;;;;;;5062409;28;20060;-75
2020/12/21 10:15:15;;;;;;;13.60;9.75;;;6.00;99.90;;;;;;5045239;28;20041;-75
2020/12/21 10:17:41;;;;;;;15.10;11.57;;;6.10;99.90;;;;;;5061752;28;20028;-72
2020/12/21 10:20:07;;;;;;;17.30;10.48;;;6.20;99.90;;;;;;5063735;28;20828;-73
2020/12/21 10:22:33;;;;;;;18.65;11.38;;;6.20;99.90;;;;;;5061223;28;20437;-79
2020/12/21 10:24:58;;;;;;;15.70;10.93;;;6.30;99.90;;;;;;5063176;28;20039;-76
2020/12/21 10:27:29;;;;;;;14.90;10.07;;;6.30;99.90;;;;;;5063993;28;20466;-77
2020/12/21 10:29:54;;;;;;;15.05;10.85;;;6.40;99.90;;;;;;5063692;28;20060;-71
2020/12/21 10:32:20;;;;;;;15.65;11.25;;;6.40;99.90;;;;;;5063608;28;20052;-71
2020/12/21 10:34:46;;;;;;;18.08;10.82;;;6.40;99.90;;;;;;5062269;28;20075;-74
2020/12/21 10:37:11;;;;;;;15.88;10.55;;;6.40;99.90;;;;;;5064290;28;20391;-68
2020/12/21 10:39:37;;;;;;;17.65;10.85;;;6.40;99.90;;;;;;5059792;28;20426;-72
2020/12/21 10:42:07;;;;;;;15.57;11.00;;;6.50;99.90;;;;;;5061420;28;20032;-73
2020/12/21 10:44:33;;;;;;;14.88;10.77;;;6.50;99.90;;;;;;5079604;28;20040;-77
2020/12/21 10:46:59;;;;;;;19.33;11.32;;;6.50;99.90;;;;;;5081263;28;20119;-75
2020/12/21 10:49:29;;;;;;;17.60;11.48;;;6.50;99.90;;;;;;5080730;28;20032;-78
2020/12/21 10:51:54;;;;;;;23.45;11.63;;;6.50;99.90;;;;;;5081595;28;20035;-74
2020/12/21 10:54:20;;;;;;;17.13;11.02;;;6.60;99.90;;;;;;5089689;28;20048;-72
2020/12/21 10:56:51;;;;;;;18.98;11.18;;;6.60;99.90;;;;;;5091050;28;20630;-76
2020/12/21 10:59:17;;;;;;;18.15;11.63;;;6.60;99.90;;;;;;5083882;28;20024;-70
2020/12/21 11:01:46;;;;;;;17.73;11.35;;;6.50;99.90;;;;;;5084578;28;20035;-68
2020/12/21 11:04:12;;;;;;;16.07;11.67;;;6.50;99.90;;;;;;5091334;28;20075;-73
2020/12/21 11:06:38;;;;;;;21.35;13.18;;;6.50;99.90;;;;;;5089775;28;20493;-70
2020/12/21 11:09:03;;;;;;;18.00;11.52;;;6.50;99.90;;;;;;5086597;28;20027;-72
2020/12/21 11:11:31;;;;;;;20.83;12.45;;;6.50;99.90;;;;;;5090965;28;20031;-76
2020/12/21 11:13:59;;;;;;;17.20;12.05;;;6.50;99.90;;;;;;5091514;28;20044;-72
2020/12/21 11:16:25;;;;;;;17.77;12.05;;;6.50;99.90;;;;;;5091313;28;20471;-76
2020/12/21 11:18:51;;;;;;;18.23;13.05;;;6.40;99.90;;;;;;5090535;28;20119;-76
2020/12/21 11:21:16;;;;;;;18.02;10.77;;;6.40;99.90;;;;;;5073115;28;20448;-73
2020/12/21 11:23:43;;;;;;;16.60;10.18;;;6.50;99.90;;;;;;5091291;28;20537;-81
2020/12/21 11:26:12;;;;;;;16.77;11.23;;;6.60;99.90;;;;;;5091159;28;20070;-76
2020/12/21 11:28:38;;;;;;;17.35;10.95;;;6.60;99.90;;;;;;5093799;28;20024;-76
2020/12/21 11:31:03;;;;;;;19.83;11.75;;;6.70;99.90;;;;;;5102437;28;20024;-72
2020/12/21 11:33:30;;;;;;;25.48;11.68;;;6.80;99.90;;;;;;5091840;28;20016;-75
2020/12/21 11:35:56;;;;;;;16.08;9.80;;;6.80;99.90;;;;;;5091346;28;20028;-85
2020/12/21 11:38:23;;;;;;;19.27;11.25;;;6.90;99.90;;;;;;5090735;28;20029;-82
2020/12/21 11:40:49;;;;;;;19.15;11.07;;;6.90;99.90;;;;;;5090337;28;20741;-86
2020/12/21 11:43:17;;;;;;;19.52;10.13;;;7.00;99.90;;;;;;5072807;28;20051;-83
2020/12/21 11:45:43;;;;;;;19.50;10.93;;;7.00;99.90;;;;;;5090202;28;20059;-80
2020/12/21 11:48:09;;;;;;;15.07;9.32;;;7.00;99.90;;;;;;5091553;28;20381;-80
2020/12/21 11:50:35;;;;;;;18.85;10.73;;;7.00;99.90;;;;;;5090568;28;20077;-80
2020/12/21 11:53:00;;;;;;;21.83;10.77;;;7.00;99.90;;;;;;5094873;28;20107;-81
2020/12/21 11:55:26;;;;;;;10.18;6.72;;;7.00;99.90;;;;;;5095082;28;20392;-79
2020/12/21 11:57:52;;;;;;;6.82;4.00;;;7.10;99.90;;;;;;5094629;28;20445;-83
2020/12/21 12:00:17;;;;;;;7.65;4.93;;;7.20;99.90;;;;;;5094799;28;20085;-72
2020/12/21 12:02:43;;;;;;;5.45;2.75;;;7.40;99.90;;;;;;5088026;28;20024;-77
2020/12/21 12:05:13;;;;;;;3.65;2.60;;;7.60;99.90;;;;;;5094551;28;20036;-75
2020/12/21 12:07:39;;;;;;;6.68;3.10;;;7.80;99.90;;;;;;5090862;28;20443;-82
2020/12/21 12:10:06;;;;;;;4.53;2.40;;;8.00;99.90;;;;;;5095019;28;20032;-77
2020/12/21 12:12:34;;;;;;;3.50;2.55;;;8.10;99.90;;;;;;5094507;28;20032;-75
2020/12/21 12:15:00;;;;;;;5.03;2.90;;;8.20;99.90;;;;;;5095074;28;20031;-81
2020/12/21 12:17:25;;;;;;;6.40;3.00;;;8.40;99.90;;;;;;5094495;28;20024;-77
2020/12/21 12:19:51;;;;;;;6.38;2.75;;;8.50;99.90;;;;;;5094076;28;20021;-80
2020/12/21 12:22:17;;;;;;;4.00;2.42;;;8.60;99.90;;;;;;5094970;28;20526;-83
2020/12/21 12:24:43;;;;;;;5.25;2.80;;;8.70;99.90;;;;;;5093654;28;20111;-79
2020/12/21 12:27:09;;;;;;;6.20;2.40;;;8.70;99.90;;;;;;5091505;28;20035;-79
2020/12/21 12:29:34;;;;;;;6.05;3.15;;;8.70;99.90;;;;;;5093672;28;20028;-80
2020/12/21 12:32:00;;;;;;;8.30;3.30;;;8.70;99.90;;;;;;5089097;28;20518;-81
2020/12/21 12:34:26;;;;;;;5.65;3.35;;;8.70;99.90;;;;;;5089793;28;20155;-80
2020/12/21 12:36:52;;;;;;;7.40;3.42;;;8.80;99.90;;;;;;5091766;28;20457;-75
2020/12/21 12:39:17;;;;;;;6.57;3.80;;;8.80;99.90;;;;;;5092538;28;20400;-77